createdAt,value
2022-11-16T00:01:41.164Z,7.90
2022-11-16T00:04:11.725Z,7.90
2022-11-16T00:06:38.132Z,7.90
2022-11-16T00:09:22.649Z,7.96
2022-11-16T00:11:51.219Z,7.93
2022-11-16T00:14:19.225Z,7.91
2022-11-16T00:16:45.957Z,7.93
2022-11-16T00:19:13.067Z,7.92
2022-11-16T00:21:39.859Z,7.92
2022-11-16T00:24:07.014Z,7.91
2022-11-16T00:26:33.422Z,7.92
2022-11-16T00:28:59.756Z,7.92
2022-11-16T00:31:26.154Z,7.89
2022-11-16T00:33:52.578Z,7.89
2022-11-16T00:36:19.140Z,7.93
2022-11-16T00:38:45.549Z,7.90
2022-11-16T00:41:12.015Z,7.88
2022-11-16T00:43:38.577Z,7.86
2022-11-16T00:46:05.236Z,7.83
2022-11-16T00:48:32.325Z,7.89
2022-11-16T00:50:58.993Z,7.87
2022-11-16T00:53:25.565Z,7.88
2022-11-16T00:55:51.960Z,7.87
2022-11-16T00:58:18.398Z,7.87
2022-11-16T01:00:44.903Z,7.86
2022-11-16T01:03:11.730Z,7.86
2022-11-16T01:05:38.426Z,7.85
2022-11-16T01:08:05.215Z,7.87
2022-11-16T01:10:32.278Z,7.85
2022-11-16T01:12:58.667Z,7.84
2022-11-16T01:15:26.777Z,7.78
2022-11-16T01:17:55.260Z,7.82
2022-11-16T01:20:26.732Z,7.86
2022-11-16T01:22:53.421Z,7.86
2022-11-16T01:25:20.474Z,7.85
2022-11-16T01:27:46.967Z,7.89
2022-11-16T01:30:14.853Z,7.91
2022-11-16T01:32:41.301Z,7.91
2022-11-16T01:35:08.211Z,7.93
2022-11-16T01:37:34.797Z,7.92
2022-11-16T01:40:01.201Z,7.94
2022-11-16T01:42:30.325Z,7.97
2022-11-16T01:44:58.804Z,7.97
2022-11-16T01:47:25.571Z,7.89
2022-11-16T01:49:57.961Z,7.95
2022-11-16T01:52:29.955Z,7.93
2022-11-16T01:54:56.705Z,7.93
2022-11-16T01:57:32.412Z,7.93
2022-11-16T02:00:00.775Z,7.96
2022-11-16T02:02:27.381Z,7.91
2022-11-16T02:04:55.283Z,7.86
2022-11-16T02:08:04.785Z,7.90
2022-11-16T02:11:02.802Z,7.88
2022-11-16T02:13:31.810Z,7.97
2022-11-16T02:16:13.384Z,7.98
2022-11-16T02:19:17.078Z,7.88
2022-11-16T02:22:10.217Z,7.95
2022-11-16T02:24:51.749Z,7.99
2022-11-16T02:27:18.046Z,7.98
2022-11-16T02:29:52.230Z,7.97
2022-11-16T02:32:27.569Z,7.99
2022-11-16T02:35:04.710Z,7.93
2022-11-16T02:37:36.337Z,7.95
2022-11-16T02:40:07.662Z,7.97
2022-11-16T02:42:47.714Z,7.97
2022-11-16T02:45:21.595Z,7.95
2022-11-16T02:47:50.752Z,7.95
2022-11-16T02:50:21.390Z,7.96
2022-11-16T02:52:47.740Z,8.02
2022-11-16T02:55:14.191Z,7.96
2022-11-16T02:57:55.526Z,7.95
2022-11-16T03:00:43.501Z,7.95
2022-11-16T03:03:23.114Z,7.99
2022-11-16T03:06:05.432Z,7.99
2022-11-16T03:08:46.148Z,7.91
2022-11-16T03:11:32.665Z,7.91
2022-11-16T03:14:06.112Z,8.01
2022-11-16T03:16:36.560Z,8.01
2022-11-16T03:19:07.779Z,8.00
2022-11-16T03:21:47.139Z,7.98
2022-11-16T03:24:14.327Z,7.93
2022-11-16T03:27:05.205Z,7.96
2022-11-16T03:29:36.583Z,7.99
2022-11-16T03:32:17.842Z,8.02
2022-11-16T03:34:53.296Z,8.02
2022-11-16T03:37:21.897Z,8.02
2022-11-16T03:39:49.658Z,7.98
2022-11-16T03:42:17.064Z,7.99
2022-11-16T03:44:45.079Z,7.94
2022-11-16T03:47:13.156Z,7.91
2022-11-16T03:49:44.210Z,7.85
2022-11-16T03:52:11.012Z,7.89
2022-11-16T03:54:37.387Z,7.94
2022-11-16T03:57:03.954Z,7.97
2022-11-16T03:59:30.295Z,7.95
2022-11-16T04:01:56.665Z,7.91
2022-11-16T04:04:41.508Z,7.87
2022-11-16T04:07:27.255Z,7.90
2022-11-16T04:10:12.146Z,7.92
2022-11-16T04:13:01.671Z,7.93
2022-11-16T04:15:46.975Z,7.89
2022-11-16T04:18:32.240Z,7.88
2022-11-16T04:21:18.157Z,7.90
2022-11-16T04:24:04.935Z,7.86
2022-11-16T04:26:50.345Z,7.89
2022-11-16T04:29:16.926Z,7.96
2022-11-16T04:32:02.054Z,7.96
2022-11-16T04:34:47.402Z,7.81
2022-11-16T04:37:36.360Z,7.85
2022-11-16T04:40:03.561Z,7.97
2022-11-16T04:42:29.953Z,7.93
2022-11-16T04:45:14.914Z,8.01
2022-11-16T04:47:41.266Z,7.99
2022-11-16T04:50:07.949Z,8.00
2022-11-16T04:52:34.357Z,7.93
2022-11-16T04:55:00.796Z,8.01
2022-11-16T04:57:27.345Z,8.00
2022-11-16T04:59:53.693Z,8.03
2022-11-16T05:02:20.520Z,8.06
2022-11-16T05:04:46.933Z,8.12
2022-11-16T05:07:14.533Z,8.20
2022-11-16T05:09:43.982Z,8.27
2022-11-16T05:12:12.287Z,8.19
2022-11-16T05:14:38.660Z,8.04
2022-11-16T05:17:05.041Z,8.16
2022-11-16T05:19:49.752Z,8.21
2022-11-16T05:22:16.239Z,8.26
2022-11-16T05:24:42.626Z,8.22
2022-11-16T05:27:14.946Z,8.08
2022-11-16T05:29:41.628Z,7.92
2022-11-16T05:32:09.617Z,7.93
2022-11-16T05:34:35.958Z,8.00
2022-11-16T05:37:02.529Z,8.06
2022-11-16T05:39:29.025Z,8.00
2022-11-16T05:41:56.445Z,7.92
2022-11-16T05:44:23.221Z,8.00
2022-11-16T05:46:49.670Z,8.01
2022-11-16T05:49:16.196Z,8.00
2022-11-16T05:51:44.945Z,8.01
2022-11-16T05:54:13.300Z,8.07
2022-11-16T05:56:39.947Z,8.17
2022-11-16T05:59:07.835Z,8.20
2022-11-16T06:01:35.610Z,8.17
2022-11-16T06:04:02.207Z,8.05
2022-11-16T06:06:28.975Z,8.08
2022-11-16T06:08:55.684Z,8.14
2022-11-16T06:11:22.144Z,8.07
2022-11-16T06:13:48.493Z,8.01
2022-11-16T06:16:16.522Z,7.93
2022-11-16T06:18:44.799Z,8.04
2022-11-16T06:21:12.268Z,8.02
2022-11-16T06:23:38.791Z,8.04
2022-11-16T06:26:05.987Z,8.05
2022-11-16T06:28:32.977Z,8.09
2022-11-16T06:30:59.818Z,8.06
2022-11-16T06:33:29.679Z,8.03
2022-11-16T06:36:00.041Z,8.03
2022-11-16T06:38:27.512Z,8.05
2022-11-16T06:40:56.332Z,8.05
2022-11-16T06:43:23.743Z,8.05
2022-11-16T06:45:51.457Z,8.07
2022-11-16T06:48:18.884Z,8.07
2022-11-16T06:50:47.119Z,8.07
2022-11-16T06:53:13.451Z,8.07
2022-11-16T06:55:39.839Z,8.12
2022-11-16T06:58:06.220Z,8.23
2022-11-16T07:00:32.639Z,8.21
2022-11-16T07:02:59.028Z,8.29
2022-11-16T07:05:25.392Z,8.20
2022-11-16T07:07:55.845Z,8.22
2022-11-16T07:10:22.834Z,8.31
2022-11-16T07:12:49.383Z,8.21
2022-11-16T07:15:15.814Z,8.25
2022-11-16T07:17:42.839Z,8.23
2022-11-16T07:20:09.501Z,8.25
2022-11-16T07:22:35.841Z,8.28
2022-11-16T07:25:02.182Z,8.24
2022-11-16T07:27:28.542Z,8.26
2022-11-16T07:29:54.945Z,8.26
2022-11-16T07:32:21.341Z,8.27
2022-11-16T07:34:47.804Z,8.25
2022-11-16T07:37:14.129Z,8.28
2022-11-16T07:39:40.498Z,8.35
2022-11-16T07:42:11.408Z,8.46
2022-11-16T07:44:38.776Z,8.46
2022-11-16T07:47:06.124Z,8.55
2022-11-16T07:49:32.547Z,8.56
2022-11-16T07:51:58.981Z,8.47
2022-11-16T07:54:25.355Z,8.39
2022-11-16T07:56:52.149Z,8.36
2022-11-16T07:59:18.508Z,8.34
2022-11-16T08:01:47.190Z,8.29
2022-11-16T08:04:15.343Z,8.29
2022-11-16T08:06:41.809Z,8.34
2022-11-16T08:09:09.353Z,8.44
2022-11-16T08:11:35.866Z,8.45
2022-11-16T08:14:02.288Z,8.50
2022-11-16T08:16:28.671Z,8.51
2022-11-16T08:18:55.196Z,8.52
2022-11-16T08:21:21.566Z,8.58
2022-11-16T08:23:48.064Z,8.58
2022-11-16T08:26:21.870Z,8.54
2022-11-16T08:28:50.935Z,8.51
2022-11-16T08:31:20.882Z,8.64
2022-11-16T08:33:48.026Z,8.68
2022-11-16T08:36:17.408Z,8.69
2022-11-16T08:38:45.237Z,8.72
2022-11-16T08:41:12.051Z,8.76
2022-11-16T08:43:40.398Z,8.80
2022-11-16T08:46:08.254Z,8.82
2022-11-16T08:48:36.097Z,8.80
2022-11-16T08:51:19.336Z,8.81
2022-11-16T08:53:48.065Z,8.85
2022-11-16T08:56:15.606Z,8.95
2022-11-16T08:58:43.693Z,9.04
2022-11-16T09:01:13.735Z,9.03
2022-11-16T09:03:41.342Z,8.98
2022-11-16T09:06:09.061Z,8.98
2022-11-16T09:08:37.929Z,8.99
2022-11-16T09:11:10.638Z,9.08
2022-11-16T09:13:37.238Z,9.20
2022-11-16T09:16:04.704Z,9.18
2022-11-16T09:18:32.001Z,9.18
2022-11-16T09:20:58.919Z,9.15
2022-11-16T09:23:25.917Z,9.16
2022-11-16T09:25:53.358Z,9.13
2022-11-16T09:28:21.240Z,8.99
2022-11-16T09:30:50.692Z,9.05
2022-11-16T09:33:17.437Z,9.05
2022-11-16T09:35:44.080Z,9.13
2022-11-16T09:38:12.663Z,9.21
2022-11-16T09:40:45.993Z,9.23
2022-11-16T09:43:18.387Z,9.30
2022-11-16T09:46:00.063Z,9.22
2022-11-16T09:48:27.413Z,9.17
2022-11-16T09:51:01.636Z,9.37
2022-11-16T09:53:34.328Z,9.46
2022-11-16T09:56:05.703Z,9.47
2022-11-16T09:58:52.058Z,9.57
2022-11-16T10:01:41.676Z,9.62
2022-11-16T10:04:36.983Z,9.61
2022-11-16T10:07:12.149Z,9.59
2022-11-16T10:09:38.845Z,9.72
2022-11-16T10:12:34.182Z,9.67
2022-11-16T10:15:49.698Z,9.71
2022-11-16T10:18:45.759Z,9.70
2022-11-16T10:21:12.926Z,9.71
2022-11-16T10:23:59.396Z,9.76
2022-11-16T10:26:32.104Z,9.68
2022-11-16T10:29:05.780Z,9.72
2022-11-16T10:32:04.622Z,9.66
2022-11-16T10:34:55.392Z,9.74
2022-11-16T10:37:23.288Z,9.75
2022-11-16T10:39:51.529Z,9.81
2022-11-16T10:42:41.685Z,9.89
2022-11-16T10:45:11.278Z,9.78
2022-11-16T10:47:50.120Z,9.78
2022-11-16T10:50:39.226Z,9.92
2022-11-16T10:53:05.855Z,9.95
2022-11-16T10:55:32.432Z,10.05
2022-11-16T10:58:04.081Z,10.14
2022-11-16T11:00:47.337Z,10.20
2022-11-16T11:03:14.759Z,10.33
2022-11-16T11:05:53.511Z,10.43
2022-11-16T11:08:30.592Z,10.47
2022-11-16T11:11:01.643Z,10.45
2022-11-16T11:13:28.087Z,10.65
2022-11-16T11:16:16.146Z,10.67
2022-11-16T11:18:42.828Z,10.63
2022-11-16T11:21:20.136Z,10.54
2022-11-16T11:23:47.825Z,10.65
2022-11-16T11:26:37.016Z,10.80
2022-11-16T11:29:16.901Z,10.89
2022-11-16T11:31:46.941Z,10.97
2022-11-16T11:34:20.842Z,10.93
2022-11-16T11:36:53.866Z,11.04
2022-11-16T11:39:20.218Z,11.06
2022-11-16T11:42:04.155Z,11.11
2022-11-16T11:44:51.904Z,11.00
2022-11-16T11:50:33.155Z,11.26
2022-11-16T11:53:27.801Z,11.30
2022-11-16T11:55:59.424Z,11.28
2022-11-16T11:58:38.569Z,11.35
2022-11-16T12:01:26.511Z,11.32
2022-11-16T12:04:08.134Z,11.42
2022-11-16T12:06:58.018Z,11.44
2022-11-16T12:09:45.732Z,11.44
2022-11-16T12:12:34.005Z,11.46
2022-11-16T12:15:34.849Z,11.36
2022-11-16T12:18:14.984Z,11.43
2022-11-16T12:21:13.694Z,11.31
2022-11-16T12:24:18.429Z,11.31
2022-11-16T12:27:32.151Z,11.31
2022-11-16T12:30:11.061Z,11.29
2022-11-16T12:32:56.214Z,11.44
2022-11-16T12:35:40.610Z,11.38
2022-11-16T12:38:07.405Z,11.46
2022-11-16T12:40:52.531Z,11.45
2022-11-16T12:43:35.297Z,11.48
2022-11-16T12:46:12.400Z,11.42
2022-11-16T12:49:09.487Z,11.33
2022-11-16T12:51:41.624Z,11.32
2022-11-16T12:54:23.156Z,11.41
2022-11-16T12:57:05.385Z,11.36
2022-11-16T12:59:55.867Z,11.40
2022-11-16T13:02:28.392Z,11.34
2022-11-16T13:05:01.730Z,11.31
2022-11-16T13:07:36.853Z,11.32
2022-11-16T13:10:13.780Z,11.42
2022-11-16T13:12:44.152Z,11.43
2022-11-16T13:15:19.131Z,11.53
2022-11-16T13:17:54.072Z,11.55
2022-11-16T13:20:56.772Z,11.52
2022-11-16T13:23:23.180Z,11.61
2022-11-16T13:26:16.213Z,11.63
2022-11-16T13:29:09.268Z,11.59
2022-11-16T13:31:45.428Z,11.63
2022-11-16T13:34:26.328Z,11.68
2022-11-16T13:36:52.891Z,11.70
2022-11-16T13:39:22.851Z,11.71
2022-11-16T13:41:51.981Z,11.68
2022-11-16T13:44:20.150Z,11.68
2022-11-16T13:47:04.682Z,11.68
2022-11-16T13:49:41.431Z,11.65
2022-11-16T13:52:46.239Z,11.61
2022-11-16T13:55:11.045Z,11.65
2022-11-16T13:57:38.175Z,11.63
2022-11-16T14:00:05.045Z,11.63
2022-11-16T14:02:36.133Z,11.62
2022-11-16T14:05:13.604Z,11.66
2022-11-16T14:07:47.090Z,11.69
2022-11-16T14:10:33.449Z,11.68
2022-11-16T14:13:01.717Z,11.66
2022-11-16T14:15:30.284Z,11.67
2022-11-16T14:18:07.417Z,11.67
2022-11-16T14:20:57.020Z,11.68
2022-11-16T14:23:38.542Z,11.64
2022-11-16T14:26:18.844Z,11.64
2022-11-16T14:28:53.067Z,11.59
2022-11-16T14:31:29.665Z,11.61
2022-11-16T14:33:58.670Z,11.56
2022-11-16T14:36:37.551Z,11.48
2022-11-16T14:39:17.508Z,11.47
2022-11-16T14:41:46.430Z,11.46
2022-11-16T14:44:18.793Z,11.41
2022-11-16T14:46:45.948Z,11.36
2022-11-16T14:49:15.938Z,11.31
2022-11-16T14:51:46.327Z,11.26
2022-11-16T14:54:38.864Z,11.19
2022-11-16T14:57:12.625Z,11.15
2022-11-16T14:59:39.010Z,11.07
2022-11-16T15:02:19.072Z,11.04
2022-11-16T15:04:46.084Z,11.04
2022-11-16T15:07:14.474Z,11.00
2022-11-16T15:09:47.081Z,10.97
2022-11-16T15:12:36.504Z,10.86
2022-11-16T15:15:11.624Z,10.82
2022-11-16T15:17:39.918Z,10.82
2022-11-16T15:20:19.897Z,10.71
2022-11-16T15:22:50.860Z,10.54
2022-11-16T15:25:36.725Z,10.49
2022-11-16T15:28:15.663Z,10.45
2022-11-16T15:30:46.112Z,10.39
2022-11-16T15:33:18.832Z,10.39
2022-11-16T15:35:46.400Z,10.37
2022-11-16T15:38:27.624Z,10.20
2022-11-16T15:40:59.537Z,10.11
2022-11-16T15:43:32.919Z,10.10
2022-11-16T15:46:00.797Z,10.02
2022-11-16T15:48:28.467Z,9.95
2022-11-16T15:51:00.084Z,9.86
2022-11-16T15:53:46.233Z,9.77
2022-11-16T15:56:18.299Z,9.90
2022-11-16T15:58:46.151Z,9.83
2022-11-16T16:01:14.219Z,9.77
2022-11-16T16:03:54.200Z,9.90
2022-11-16T16:06:55.843Z,9.90
2022-11-16T16:09:37.588Z,9.79
2022-11-16T16:12:21.484Z,9.72
2022-11-16T16:14:49.571Z,9.66
2022-11-16T16:17:28.020Z,9.56
2022-11-16T16:20:01.257Z,9.51
2022-11-16T16:22:29.606Z,9.55
2022-11-16T16:24:56.289Z,9.57
2022-11-16T16:27:24.991Z,9.53
2022-11-16T16:29:57.177Z,9.52
2022-11-16T16:32:33.439Z,9.54
2022-11-16T16:35:02.331Z,9.47
2022-11-16T16:37:31.284Z,9.38
2022-11-16T16:39:58.750Z,9.26
2022-11-16T16:42:25.481Z,9.22
2022-11-16T16:44:52.241Z,9.21
2022-11-16T16:47:22.008Z,9.19
2022-11-16T16:49:49.300Z,9.07
2022-11-16T16:52:16.050Z,9.03
2022-11-16T16:54:42.563Z,9.07
2022-11-16T16:57:16.366Z,9.01
2022-11-16T16:59:45.311Z,9.02
2022-11-16T17:02:12.786Z,9.03
2022-11-16T17:04:39.237Z,9.02
2022-11-16T17:07:06.070Z,8.98
2022-11-16T17:09:32.565Z,8.93
2022-11-16T17:11:58.907Z,8.88
2022-11-16T17:14:25.311Z,8.86
2022-11-16T17:16:52.304Z,8.87
2022-11-16T17:19:19.758Z,8.85
2022-11-16T17:21:46.168Z,8.92
2022-11-16T17:24:12.739Z,8.91
2022-11-16T17:26:40.743Z,8.87
2022-11-16T17:29:07.115Z,8.82
2022-11-16T17:31:33.513Z,8.85
2022-11-16T17:33:59.921Z,8.84
2022-11-16T17:36:26.286Z,8.83
2022-11-16T17:38:52.688Z,8.79
2022-11-16T17:41:24.083Z,8.64
2022-11-16T17:43:52.866Z,8.67
2022-11-16T17:46:21.520Z,8.78
2022-11-16T17:48:48.427Z,8.71
2022-11-16T17:51:18.735Z,8.72
2022-11-16T17:53:45.483Z,8.78
2022-11-16T17:56:14.237Z,8.75
2022-11-16T17:58:41.247Z,8.64
2022-11-16T18:01:08.145Z,8.72
2022-11-16T18:03:38.648Z,8.70
2022-11-16T18:06:12.030Z,8.66
2022-11-16T18:08:38.767Z,8.72
2022-11-16T18:11:06.262Z,8.76
2022-11-16T18:13:33.603Z,8.73
2022-11-16T18:16:09.711Z,8.77
2022-11-16T18:18:37.741Z,8.80
2022-11-16T18:21:05.316Z,8.86
2022-11-16T18:23:33.603Z,8.94
2022-11-16T18:26:00.420Z,9.04
2022-11-16T18:28:26.810Z,8.96
2022-11-16T18:31:02.381Z,8.96
2022-11-16T18:33:30.534Z,8.92
2022-11-16T18:35:57.118Z,8.88
2022-11-16T18:38:23.557Z,8.84
2022-11-16T18:41:12.323Z,8.91
2022-11-16T18:43:48.512Z,8.92
2022-11-16T18:46:15.119Z,8.94
2022-11-16T18:48:42.764Z,8.89
2022-11-16T18:51:10.514Z,8.95
2022-11-16T18:53:37.395Z,8.93
2022-11-16T18:56:04.771Z,8.90
2022-11-16T19:01:19.548Z,9.06
2022-11-16T19:03:46.051Z,8.97
2022-11-16T19:06:12.581Z,8.91
2022-11-16T19:08:41.177Z,8.96
2022-11-16T19:11:10.633Z,8.84
2022-11-16T19:13:37.613Z,8.90
2022-11-16T19:16:04.440Z,8.95
2022-11-16T19:18:30.926Z,9.03
2022-11-16T19:21:07.278Z,9.03
2022-11-16T19:23:38.234Z,9.02
2022-11-16T19:26:05.213Z,8.90
2022-11-16T19:28:36.547Z,8.85
2022-11-16T19:31:16.608Z,8.83
2022-11-16T19:33:44.421Z,8.74
2022-11-16T19:36:16.343Z,8.66
2022-11-16T19:38:43.325Z,8.65
2022-11-16T19:41:11.747Z,8.64
2022-11-16T19:43:38.614Z,8.59
2022-11-16T19:46:06.427Z,8.60
2022-11-16T19:48:34.014Z,8.58
2022-11-16T19:51:11.768Z,8.54
2022-11-16T19:53:39.480Z,8.48
2022-11-16T19:56:07.073Z,8.44
2022-11-16T19:58:38.220Z,8.44
2022-11-16T20:01:07.178Z,8.42
2022-11-16T20:03:34.615Z,8.44
2022-11-16T20:06:10.048Z,8.49
2022-11-16T20:08:37.805Z,8.44
2022-11-16T20:11:11.745Z,8.45
2022-11-16T20:13:38.504Z,8.47
2022-11-16T20:16:06.695Z,8.53
2022-11-16T20:18:33.097Z,8.51
2022-11-16T20:21:05.123Z,8.52
2022-11-16T20:23:34.496Z,8.53
2022-11-16T20:26:06.449Z,8.57
2022-11-16T20:28:37.107Z,8.53
2022-11-16T20:31:07.154Z,8.54
2022-11-16T20:33:34.688Z,8.56
2022-11-16T20:36:09.574Z,8.57
2022-11-16T20:38:37.318Z,8.63
2022-11-16T20:41:15.107Z,8.77
2022-11-16T20:43:42.480Z,8.63
2022-11-16T20:46:11.174Z,8.61
2022-11-16T20:48:40.376Z,8.56
2022-11-16T20:51:08.498Z,8.47
2022-11-16T20:53:35.235Z,8.43
2022-11-16T20:56:03.391Z,8.40
2022-11-16T20:58:30.799Z,8.32
2022-11-16T21:01:00.911Z,8.34
2022-11-16T21:03:27.997Z,8.44
2022-11-16T21:05:54.571Z,8.37
2022-11-16T21:08:21.117Z,8.24
2022-11-16T21:10:48.533Z,8.23
2022-11-16T21:13:49.712Z,8.09
2022-11-16T21:16:16.343Z,8.05
2022-11-16T21:18:42.731Z,7.97
2022-11-16T21:21:13.151Z,7.96
2022-11-16T21:23:43.081Z,7.95
2022-11-16T21:26:14.698Z,7.97
2022-11-16T21:28:44.545Z,8.03
2022-11-16T21:31:15.829Z,7.91
2022-11-16T21:33:44.226Z,8.01
2022-11-16T21:36:16.312Z,7.90
2022-11-16T21:38:43.047Z,7.88
2022-11-16T21:41:11.231Z,7.89
2022-11-16T21:43:40.163Z,7.99
2022-11-16T21:46:17.808Z,7.88
2022-11-16T21:48:44.940Z,7.94
2022-11-16T21:51:13.728Z,7.94
2022-11-16T21:53:40.536Z,7.84
2022-11-16T21:56:17.449Z,7.90
2022-11-16T21:58:44.633Z,7.83
2022-11-16T22:01:12.578Z,7.79
2022-11-16T22:03:39.259Z,7.74
2022-11-16T22:06:26.151Z,7.68
2022-11-16T22:08:52.793Z,7.70
2022-11-16T22:11:21.913Z,7.61
2022-11-16T22:13:49.227Z,7.71
2022-11-16T22:16:16.807Z,7.72
2022-11-16T22:18:43.534Z,7.66
2022-11-16T22:21:10.759Z,7.62
2022-11-16T22:23:37.794Z,7.67
2022-11-16T22:26:06.917Z,7.81
2022-11-16T22:28:34.132Z,7.86
2022-11-16T22:31:06.108Z,7.79
2022-11-16T22:33:33.569Z,7.77
2022-11-16T22:36:00.398Z,7.80
2022-11-16T22:38:27.188Z,7.87
2022-11-16T22:40:55.896Z,7.96
2022-11-16T22:43:24.685Z,7.96
2022-11-16T22:45:51.210Z,7.89
2022-11-16T22:48:17.779Z,7.87
2022-11-16T22:50:44.750Z,7.83
2022-11-16T22:53:11.144Z,7.76
2022-11-16T22:55:38.844Z,7.74
2022-11-16T22:58:05.831Z,7.66
2022-11-16T23:00:38.954Z,7.59
2022-11-16T23:03:08.327Z,7.60
2022-11-16T23:05:34.674Z,7.55
2022-11-16T23:08:01.044Z,7.57
2022-11-16T23:10:28.833Z,7.62
2022-11-16T23:13:13.878Z,7.56
2022-11-16T23:15:49.003Z,7.48
2022-11-16T23:18:15.623Z,7.46
2022-11-16T23:21:00.377Z,7.46
2022-11-16T23:23:45.251Z,7.56
2022-11-16T23:26:41.175Z,7.58
2022-11-16T23:29:11.138Z,7.54
2022-11-16T23:31:38.236Z,7.50
2022-11-16T23:34:05.119Z,7.43
2022-11-16T23:36:31.700Z,7.29
2022-11-16T23:38:58.198Z,7.30
2022-11-16T23:41:43.035Z,7.27
2022-11-16T23:44:09.479Z,7.16
2022-11-16T23:46:35.923Z,7.16
2022-11-16T23:49:02.365Z,7.15
2022-11-16T23:51:28.889Z,7.30
2022-11-16T23:53:55.837Z,7.26
2022-11-16T23:56:22.813Z,7.28
2022-11-16T23:58:49.373Z,7.21
